sensor_id;sensor_type;location;lat;lon;timestamp;temperature;humidity
16643;DHT22;8435;52.184;5.406;2022-11-25T00:00:07;11.00;99.90
16643;DHT22;8435;52.184;5.406;2022-11-25T00:02:35;11.00;99.90
16643;DHT22;8435;52.184;5.406;2022-11-25T00:05:02;11.00;99.90
16643;DHT22;8435;52.184;5.406;2022-11-25T00:07:29;11.00;99.90
16643;DHT22;8435;52.184;5.406;2022-11-25T00:09:55;11.00;99.90
16643;DHT22;8435;52.184;5.406;2022-11-25T00:12:22;11.00;99.90
16643;DHT22;8435;52.184;5.406;2022-11-25T00:14:49;11.00;99.90
16643;DHT22;8435;52.184;5.406;2022-11-25T00:17:15;11.00;99.90
16643;DHT22;8435;52.184;5.406;2022-11-25T00:19:43;11.00;99.90
16643;DHT22;8435;52.184;5.406;2022-11-25T00:22:10;10.90;99.90
16643;DHT22;8435;52.184;5.406;2022-11-25T00:24:37;10.90;99.90
16643;DHT22;8435;52.184;5.406;2022-11-25T00:27:03;10.90;99.90
16643;DHT22;8435;52.184;5.406;2022-11-25T00:29:30;10.90;99.90
16643;DHT22;8435;52.184;5.406;2022-11-25T00:31:57;10.90;99.90
16643;DHT22;8435;52.184;5.406;2022-11-25T00:34:24;10.90;99.90
16643;DHT22;8435;52.184;5.406;2022-11-25T00:36:52;10.90;99.90
16643;DHT22;8435;52.184;5.406;2022-11-25T00:39:19;10.90;99.90
16643;DHT22;8435;52.184;5.406;2022-11-25T00:41:48;10.90;99.90
16643;DHT22;8435;52.184;5.406;2022-11-25T00:44:32;10.90;99.90
16643;DHT22;8435;52.184;5.406;2022-11-25T00:47:05;10.90;99.90
16643;DHT22;8435;52.184;5.406;2022-11-25T00:49:32;10.90;99.90
16643;DHT22;8435;52.184;5.406;2022-11-25T00:52:01;10.90;99.90
16643;DHT22;8435;52.184;5.406;2022-11-25T00:54:27;10.90;99.90
16643;DHT22;8435;52.184;5.406;2022-11-25T00:56:54;10.90;99.90
16643;DHT22;8435;52.184;5.406;2022-11-25T00:59:21;10.90;99.90
16643;DHT22;8435;52.184;5.406;2022-11-25T01:01:48;10.90;99.90
16643;DHT22;8435;52.184;5.406;2022-11-25T01:04:15;10.90;99.90
16643;DHT22;8435;52.184;5.406;2022-11-25T01:06:42;10.90;99.90
16643;DHT22;8435;52.184;5.406;2022-11-25T01:09:11;10.90;99.90
16643;DHT22;8435;52.184;5.406;2022-11-25T01:11:39;10.80;99.90
16643;DHT22;8435;52.184;5.406;2022-11-25T01:14:06;10.80;99.90
16643;DHT22;8435;52.184;5.406;2022-11-25T01:16:35;10.80;99.90
16643;DHT22;8435;52.184;5.406;2022-11-25T01:19:02;10.80;99.90
16643;DHT22;8435;52.184;5.406;2022-11-25T01:21:33;10.80;99.90
16643;DHT22;8435;52.184;5.406;2022-11-25T01:24:01;10.80;99.90
16643;DHT22;8435;52.184;5.406;2022-11-25T01:26:30;10.80;99.90
16643;DHT22;8435;52.184;5.406;2022-11-25T01:28:58;10.80;99.90
16643;DHT22;8435;52.184;5.406;2022-11-25T01:31:27;10.80;99.90
16643;DHT22;8435;52.184;5.406;2022-11-25T01:33:56;10.80;99.90
16643;DHT22;8435;52.184;5.406;2022-11-25T01:36:23;10.80;99.90
16643;DHT22;8435;52.184;5.406;2022-11-25T01:38:51;10.80;99.90
16643;DHT22;8435;52.184;5.406;2022-11-25T01:41:20;10.80;99.90
16643;DHT22;8435;52.184;5.406;2022-11-25T01:44:10;10.80;99.90
16643;DHT22;8435;52.184;5.406;2022-11-25T01:46:53;10.80;99.90
16643;DHT22;8435;52.184;5.406;2022-11-25T01:49:26;10.80;99.90
16643;DHT22;8435;52.184;5.406;2022-11-25T01:51:57;10.80;99.90
16643;DHT22;8435;52.184;5.406;2022-11-25T01:54:28;10.80;99.90
16643;DHT22;8435;52.184;5.406;2022-11-25T01:56:58;10.80;99.90
16643;DHT22;8435;52.184;5.406;2022-11-25T01:59:28;10.80;99.90
16643;DHT22;8435;52.184;5.406;2022-11-25T02:01:57;10.80;99.90
16643;DHT22;8435;52.184;5.406;2022-11-25T02:04:28;10.90;99.90
16643;DHT22;8435;52.184;5.406;2022-11-25T02:07:04;10.90;99.90
16643;DHT22;8435;52.184;5.406;2022-11-25T02:09:33;10.90;99.90
16643;DHT22;8435;52.184;5.406;2022-11-25T02:12:00;10.90;99.90
16643;DHT22;8435;52.184;5.406;2022-11-25T02:14:29;10.90;99.90
16643;DHT22;8435;52.184;5.406;2022-11-25T02:16:58;10.90;99.90
16643;DHT22;8435;52.184;5.406;2022-11-25T02:19:33;10.90;99.90
16643;DHT22;8435;52.184;5.406;2022-11-25T02:22:08;10.90;99.90
16643;DHT22;8435;52.184;5.406;2022-11-25T02:24:42;11.00;99.90
16643;DHT22;8435;52.184;5.406;2022-11-25T02:27:12;11.00;99.90
16643;DHT22;8435;52.184;5.406;2022-11-25T02:29:39;11.00;99.90
16643;DHT22;8435;52.184;5.406;2022-11-25T02:32:06;11.00;99.90
16643;DHT22;8435;52.184;5.406;2022-11-25T02:34:32;11.00;99.90
16643;DHT22;8435;52.184;5.406;2022-11-25T02:36:59;11.00;99.90
16643;DHT22;8435;52.184;5.406;2022-11-25T02:39:27;11.00;99.90
16643;DHT22;8435;52.184;5.406;2022-11-25T02:41:56;11.00;99.90
16643;DHT22;8435;52.184;5.406;2022-11-25T02:44:26;11.10;99.90
16643;DHT22;8435;52.184;5.406;2022-11-25T02:46:53;11.10;99.90
16643;DHT22;8435;52.184;5.406;2022-11-25T02:49:19;11.10;99.90
16643;DHT22;8435;52.184;5.406;2022-11-25T02:51:46;11.10;99.90
16643;DHT22;8435;52.184;5.406;2022-11-25T02:54:14;11.10;99.90
16643;DHT22;8435;52.184;5.406;2022-11-25T02:56:41;11.10;99.90
16643;DHT22;8435;52.184;5.406;2022-11-25T02:59:08;11.10;99.90
16643;DHT22;8435;52.184;5.406;2022-11-25T03:01:36;11.10;99.90
16643;DHT22;8435;52.184;5.406;2022-11-25T03:04:04;11.20;99.90
16643;DHT22;8435;52.184;5.406;2022-11-25T03:06:30;11.20;99.90
16643;DHT22;8435;52.184;5.406;2022-11-25T03:08:57;11.20;99.90
16643;DHT22;8435;52.184;5.406;2022-11-25T03:11:24;11.20;99.90
16643;DHT22;8435;52.184;5.406;2022-11-25T03:14:05;11.20;99.90
16643;DHT22;8435;52.184;5.406;2022-11-25T03:16:31;11.30;99.90
16643;DHT22;8435;52.184;5.406;2022-11-25T03:18:59;11.30;99.90
16643;DHT22;8435;52.184;5.406;2022-11-25T03:21:26;11.30;99.90
16643;DHT22;8435;52.184;5.406;2022-11-25T03:23:53;11.30;99.90
16643;DHT22;8435;52.184;5.406;2022-11-25T03:26:20;11.30;99.90
16643;DHT22;8435;52.184;5.406;2022-11-25T03:28:46;11.30;99.90
16643;DHT22;8435;52.184;5.406;2022-11-25T03:31:15;11.30;99.90
16643;DHT22;8435;52.184;5.406;2022-11-25T03:33:41;11.30;99.90
16643;DHT22;8435;52.184;5.406;2022-11-25T03:36:10;11.30;99.90
16643;DHT22;8435;52.184;5.406;2022-11-25T03:38:36;11.40;99.90
16643;DHT22;8435;52.184;5.406;2022-11-25T03:41:03;11.40;99.90
16643;DHT22;8435;52.184;5.406;2022-11-25T03:43:31;11.40;99.90
16643;DHT22;8435;52.184;5.406;2022-11-25T03:45:59;11.40;99.90
16643;DHT22;8435;52.184;5.406;2022-11-25T03:48:26;11.40;99.90
16643;DHT22;8435;52.184;5.406;2022-11-25T03:50:53;11.40;99.90
16643;DHT22;8435;52.184;5.406;2022-11-25T03:53:21;11.40;99.90
16643;DHT22;8435;52.184;5.406;2022-11-25T03:55:48;11.40;99.90
16643;DHT22;8435;52.184;5.406;2022-11-25T03:58:14;11.40;99.90
16643;DHT22;8435;52.184;5.406;2022-11-25T04:00:41;11.40;99.90
16643;DHT22;8435;52.184;5.406;2022-11-25T04:03:09;11.40;99.90
16643;DHT22;8435;52.184;5.406;2022-11-25T04:05:35;11.40;99.90
16643;DHT22;8435;52.184;5.406;2022-11-25T04:08:03;11.40;99.90
16643;DHT22;8435;52.184;5.406;2022-11-25T04:10:31;11.40;99.90
16643;DHT22;8435;52.184;5.406;2022-11-25T04:12:57;11.40;99.90
16643;DHT22;8435;52.184;5.406;2022-11-25T04:15:23;11.40;99.90
16643;DHT22;8435;52.184;5.406;2022-11-25T04:17:50;11.40;99.90
16643;DHT22;8435;52.184;5.406;2022-11-25T04:20:17;11.40;99.90
16643;DHT22;8435;52.184;5.406;2022-11-25T04:22:44;11.40;99.90
16643;DHT22;8435;52.184;5.406;2022-11-25T04:25:10;11.40;99.90
16643;DHT22;8435;52.184;5.406;2022-11-25T04:27:39;11.40;99.90
16643;DHT22;8435;52.184;5.406;2022-11-25T04:30:07;11.40;99.90
16643;DHT22;8435;52.184;5.406;2022-11-25T04:32:35;11.40;99.90
16643;DHT22;8435;52.184;5.406;2022-11-25T04:35:02;11.40;99.90
16643;DHT22;8435;52.184;5.406;2022-11-25T04:37:29;11.40;99.90
16643;DHT22;8435;52.184;5.406;2022-11-25T04:39:56;11.40;99.90
16643;DHT22;8435;52.184;5.406;2022-11-25T04:42:23;11.40;99.90
16643;DHT22;8435;52.184;5.406;2022-11-25T04:45:03;11.40;99.90
16643;DHT22;8435;52.184;5.406;2022-11-25T04:47:30;11.40;99.90
16643;DHT22;8435;52.184;5.406;2022-11-25T04:49:57;11.40;99.90
16643;DHT22;8435;52.184;5.406;2022-11-25T04:52:24;11.40;99.90
16643;DHT22;8435;52.184;5.406;2022-11-25T04:54:51;11.40;99.90
16643;DHT22;8435;52.184;5.406;2022-11-25T04:57:18;11.30;99.90
16643;DHT22;8435;52.184;5.406;2022-11-25T04:59:45;11.30;99.90
16643;DHT22;8435;52.184;5.406;2022-11-25T05:02:16;11.30;99.90
16643;DHT22;8435;52.184;5.406;2022-11-25T05:04:44;11.30;99.90
16643;DHT22;8435;52.184;5.406;2022-11-25T05:07:11;11.30;99.90
16643;DHT22;8435;52.184;5.406;2022-11-25T05:09:38;11.20;99.90
16643;DHT22;8435;52.184;5.406;2022-11-25T05:12:05;11.20;99.90
16643;DHT22;8435;52.184;5.406;2022-11-25T05:14:36;11.20;99.90
16643;DHT22;8435;52.184;5.406;2022-11-25T05:17:03;11.10;99.90
16643;DHT22;8435;52.184;5.406;2022-11-25T05:19:31;11.10;99.90
16643;DHT22;8435;52.184;5.406;2022-11-25T05:22:00;11.10;99.90
16643;DHT22;8435;52.184;5.406;2022-11-25T05:24:29;11.00;99.90
16643;DHT22;8435;52.184;5.406;2022-11-25T05:26:56;11.00;99.90
16643;DHT22;8435;52.184;5.406;2022-11-25T05:29:22;11.00;99.90
16643;DHT22;8435;52.184;5.406;2022-11-25T05:31:49;10.90;99.90
16643;DHT22;8435;52.184;5.406;2022-11-25T05:34:16;10.90;99.90
16643;DHT22;8435;52.184;5.406;2022-11-25T05:36:44;10.90;99.90
16643;DHT22;8435;52.184;5.406;2022-11-25T05:39:11;10.80;99.90
16643;DHT22;8435;52.184;5.406;2022-11-25T05:41:38;10.80;99.90
16643;DHT22;8435;52.184;5.406;2022-11-25T05:44:04;10.80;99.90
16643;DHT22;8435;52.184;5.406;2022-11-25T05:46:31;10.80;99.90
16643;DHT22;8435;52.184;5.406;2022-11-25T05:48:58;10.70;99.90
16643;DHT22;8435;52.184;5.406;2022-11-25T05:51:25;10.70;99.90
16643;DHT22;8435;52.184;5.406;2022-11-25T05:53:54;10.70;99.90
16643;DHT22;8435;52.184;5.406;2022-11-25T05:56:24;10.60;99.90
16643;DHT22;8435;52.184;5.406;2022-11-25T05:58:51;10.60;99.90
16643;DHT22;8435;52.184;5.406;2022-11-25T06:01:19;10.60;99.90
16643;DHT22;8435;52.184;5.406;2022-11-25T06:03:46;10.60;99.90
16643;DHT22;8435;52.184;5.406;2022-11-25T06:06:13;10.50;99.90
16643;DHT22;8435;52.184;5.406;2022-11-25T06:08:40;10.50;99.90
16643;DHT22;8435;52.184;5.406;2022-11-25T06:11:10;10.50;99.90
16643;DHT22;8435;52.184;5.406;2022-11-25T06:13:37;10.40;99.90
16643;DHT22;8435;52.184;5.406;2022-11-25T06:16:08;10.50;99.90
16643;DHT22;8435;52.184;5.406;2022-11-25T06:18:35;10.40;99.90
16643;DHT22;8435;52.184;5.406;2022-11-25T06:21:03;10.50;99.90
16643;DHT22;8435;52.184;5.406;2022-11-25T06:23:31;10.40;99.90
16643;DHT22;8435;52.184;5.406;2022-11-25T06:26:03;10.40;99.90
16643;DHT22;8435;52.184;5.406;2022-11-25T06:28:31;10.40;99.90
16643;DHT22;8435;52.184;5.406;2022-11-25T06:31:04;10.40;99.90
16643;DHT22;8435;52.184;5.406;2022-11-25T06:33:32;10.40;99.90
16643;DHT22;8435;52.184;5.406;2022-11-25T06:36:02;10.40;99.90
16643;DHT22;8435;52.184;5.406;2022-11-25T06:38:29;10.40;99.90
16643;DHT22;8435;52.184;5.406;2022-11-25T06:40:58;10.40;99.90
16643;DHT22;8435;52.184;5.406;2022-11-25T06:43:28;10.40;99.90
16643;DHT22;8435;52.184;5.406;2022-11-25T06:46:02;10.30;99.90
16643;DHT22;8435;52.184;5.406;2022-11-25T06:48:29;10.30;99.90
16643;DHT22;8435;52.184;5.406;2022-11-25T06:50:57;10.30;99.90
16643;DHT22;8435;52.184;5.406;2022-11-25T06:53:25;10.30;99.90
16643;DHT22;8435;52.184;5.406;2022-11-25T06:56:06;10.30;99.90
16643;DHT22;8435;52.184;5.406;2022-11-25T06:58:34;10.30;99.90
16643;DHT22;8435;52.184;5.406;2022-11-25T07:01:04;10.30;99.90
16643;DHT22;8435;52.184;5.406;2022-11-25T07:03:31;10.30;99.90
16643;DHT22;8435;52.184;5.406;2022-11-25T07:05:59;10.30;99.90
16643;DHT22;8435;52.184;5.406;2022-11-25T07:08:26;10.30;99.90
16643;DHT22;8435;52.184;5.406;2022-11-25T07:10:53;10.30;99.90
16643;DHT22;8435;52.184;5.406;2022-11-25T07:13:20;10.30;99.90
16643;DHT22;8435;52.184;5.406;2022-11-25T07:15:47;10.20;99.90
16643;DHT22;8435;52.184;5.406;2022-11-25T07:18:15;10.20;99.90
16643;DHT22;8435;52.184;5.406;2022-11-25T07:20:41;10.20;99.90
16643;DHT22;8435;52.184;5.406;2022-11-25T07:23:08;10.20;99.90
16643;DHT22;8435;52.184;5.406;2022-11-25T07:25:35;10.20;99.90
16643;DHT22;8435;52.184;5.406;2022-11-25T07:28:02;10.20;99.90
16643;DHT22;8435;52.184;5.406;2022-11-25T07:30:29;10.20;99.90
16643;DHT22;8435;52.184;5.406;2022-11-25T07:32:55;10.20;99.90
16643;DHT22;8435;52.184;5.406;2022-11-25T07:35:23;10.10;99.90
16643;DHT22;8435;52.184;5.406;2022-11-25T07:37:52;10.10;99.90
16643;DHT22;8435;52.184;5.406;2022-11-25T07:40:19;10.10;99.90
16643;DHT22;8435;52.184;5.406;2022-11-25T07:42:46;10.10;99.90
16643;DHT22;8435;52.184;5.406;2022-11-25T07:45:12;10.10;99.90
16643;DHT22;8435;52.184;5.406;2022-11-25T07:47:39;10.10;99.90
16643;DHT22;8435;52.184;5.406;2022-11-25T07:50:07;10.10;99.90
16643;DHT22;8435;52.184;5.406;2022-11-25T07:52:38;10.10;99.90
16643;DHT22;8435;52.184;5.406;2022-11-25T07:55:06;10.10;99.90
16643;DHT22;8435;52.184;5.406;2022-11-25T07:57:33;10.10;99.90
16643;DHT22;8435;52.184;5.406;2022-11-25T07:59:59;10.10;99.90
16643;DHT22;8435;52.184;5.406;2022-11-25T08:02:26;10.10;99.90
16643;DHT22;8435;52.184;5.406;2022-11-25T08:04:53;10.10;99.90
16643;DHT22;8435;52.184;5.406;2022-11-25T08:07:20;10.10;99.90
16643;DHT22;8435;52.184;5.406;2022-11-25T08:09:48;10.20;99.90
16643;DHT22;8435;52.184;5.406;2022-11-25T08:12:15;10.20;99.90
16643;DHT22;8435;52.184;5.406;2022-11-25T08:14:42;10.20;99.90
16643;DHT22;8435;52.184;5.406;2022-11-25T08:17:09;10.30;99.90
16643;DHT22;8435;52.184;5.406;2022-11-25T08:19:36;10.40;99.90
16643;DHT22;8435;52.184;5.406;2022-11-25T08:22:05;10.40;99.90
16643;DHT22;8435;52.184;5.406;2022-11-25T08:24:31;10.60;99.90
16643;DHT22;8435;52.184;5.406;2022-11-25T08:27:00;10.60;99.90
16643;DHT22;8435;52.184;5.406;2022-11-25T08:29:26;10.70;99.90
16643;DHT22;8435;52.184;5.406;2022-11-25T08:31:53;10.70;99.90
16643;DHT22;8435;52.184;5.406;2022-11-25T08:34:21;10.70;99.90
16643;DHT22;8435;52.184;5.406;2022-11-25T08:36:49;10.80;99.90
16643;DHT22;8435;52.184;5.406;2022-11-25T08:39:17;10.80;99.90
16643;DHT22;8435;52.184;5.406;2022-11-25T08:41:44;10.80;99.90
16643;DHT22;8435;52.184;5.406;2022-11-25T08:44:12;10.80;99.90
16643;DHT22;8435;52.184;5.406;2022-11-25T08:46:39;10.80;99.90
16643;DHT22;8435;52.184;5.406;2022-11-25T08:49:15;10.80;99.90
16643;DHT22;8435;52.184;5.406;2022-11-25T08:51:43;10.80;99.90
16643;DHT22;8435;52.184;5.406;2022-11-25T08:54:10;10.80;99.90
16643;DHT22;8435;52.184;5.406;2022-11-25T08:56:37;10.80;99.90
16643;DHT22;8435;52.184;5.406;2022-11-25T08:59:04;10.80;99.90
16643;DHT22;8435;52.184;5.406;2022-11-25T09:01:32;10.90;99.90
16643;DHT22;8435;52.184;5.406;2022-11-25T09:03:59;10.90;99.90
16643;DHT22;8435;52.184;5.406;2022-11-25T09:06:27;10.90;99.90
16643;DHT22;8435;52.184;5.406;2022-11-25T09:08:55;10.90;99.90
16643;DHT22;8435;52.184;5.406;2022-11-25T09:11:23;10.90;99.90
16643;DHT22;8435;52.184;5.406;2022-11-25T09:13:50;10.90;99.90
16643;DHT22;8435;52.184;5.406;2022-11-25T09:16:17;11.00;99.90
16643;DHT22;8435;52.184;5.406;2022-11-25T09:18:46;11.00;99.90
16643;DHT22;8435;52.184;5.406;2022-11-25T09:21:15;11.00;99.90
16643;DHT22;8435;52.184;5.406;2022-11-25T09:23:42;11.00;99.90
16643;DHT22;8435;52.184;5.406;2022-11-25T09:26:17;11.10;99.90
16643;DHT22;8435;52.184;5.406;2022-11-25T09:28:45;11.10;99.90
16643;DHT22;8435;52.184;5.406;2022-11-25T09:31:12;11.10;99.90
16643;DHT22;8435;52.184;5.406;2022-11-25T09:33:38;11.10;99.90
16643;DHT22;8435;52.184;5.406;2022-11-25T09:36:07;11.20;99.90
16643;DHT22;8435;52.184;5.406;2022-11-25T09:38:33;11.20;99.90
16643;DHT22;8435;52.184;5.406;2022-11-25T09:41:04;11.20;99.90
16643;DHT22;8435;52.184;5.406;2022-11-25T09:43:40;11.30;99.90
16643;DHT22;8435;52.184;5.406;2022-11-25T09:46:43;11.30;99.90
16643;DHT22;8435;52.184;5.406;2022-11-25T09:49:21;11.30;99.90
16643;DHT22;8435;52.184;5.406;2022-11-25T09:51:59;11.30;99.90
16643;DHT22;8435;52.184;5.406;2022-11-25T09:54:32;11.40;99.90
16643;DHT22;8435;52.184;5.406;2022-11-25T09:57:07;11.40;99.90
16643;DHT22;8435;52.184;5.406;2022-11-25T09:59:41;11.40;99.90
16643;DHT22;8435;52.184;5.406;2022-11-25T10:02:15;11.40;99.90
16643;DHT22;8435;52.184;5.406;2022-11-25T10:04:47;11.50;99.90
16643;DHT22;8435;52.184;5.406;2022-11-25T10:07:21;11.50;99.90
16643;DHT22;8435;52.184;5.406;2022-11-25T10:09:53;11.50;99.90
16643;DHT22;8435;52.184;5.406;2022-11-25T10:12:24;11.60;99.90
16643;DHT22;8435;52.184;5.406;2022-11-25T10:14:58;11.60;99.90
16643;DHT22;8435;52.184;5.406;2022-11-25T10:17:32;11.60;99.90
16643;DHT22;8435;52.184;5.406;2022-11-25T10:20:05;11.70;99.90
16643;DHT22;8435;52.184;5.406;2022-11-25T10:22:36;11.70;99.90
16643;DHT22;8435;52.184;5.406;2022-11-25T10:25:13;11.70;99.90
16643;DHT22;8435;52.184;5.406;2022-11-25T10:27:43;11.80;99.90
16643;DHT22;8435;52.184;5.406;2022-11-25T10:30:16;11.80;99.90
16643;DHT22;8435;52.184;5.406;2022-11-25T10:32:48;11.80;99.90
16643;DHT22;8435;52.184;5.406;2022-11-25T10:35:24;11.90;99.90
16643;DHT22;8435;52.184;5.406;2022-11-25T10:37:55;11.90;99.90
16643;DHT22;8435;52.184;5.406;2022-11-25T10:40:24;12.00;99.90
16643;DHT22;8435;52.184;5.406;2022-11-25T10:42:51;12.00;99.90
16643;DHT22;8435;52.184;5.406;2022-11-25T10:45:20;12.00;99.90
16643;DHT22;8435;52.184;5.406;2022-11-25T10:48:12;12.10;99.90
16643;DHT22;8435;52.184;5.406;2022-11-25T10:50:54;12.10;99.90
16643;DHT22;8435;52.184;5.406;2022-11-25T10:53:27;12.10;99.90
16643;DHT22;8435;52.184;5.406;2022-11-25T10:55:58;12.20;99.90
16643;DHT22;8435;52.184;5.406;2022-11-25T10:58:29;12.20;99.90
16643;DHT22;8435;52.184;5.406;2022-11-25T11:01:16;12.30;99.90
16643;DHT22;8435;52.184;5.406;2022-11-25T11:03:44;12.30;99.90
16643;DHT22;8435;52.184;5.406;2022-11-25T11:06:30;12.30;99.90
16643;DHT22;8435;52.184;5.406;2022-11-25T11:08:58;12.40;99.90
16643;DHT22;8435;52.184;5.406;2022-11-25T11:11:26;12.40;99.90
16643;DHT22;8435;52.184;5.406;2022-11-25T11:14:12;12.50;99.90
16643;DHT22;8435;52.184;5.406;2022-11-25T11:16:41;12.50;99.90
16643;DHT22;8435;52.184;5.406;2022-11-25T11:19:23;12.50;99.90
16643;DHT22;8435;52.184;5.406;2022-11-25T11:21:52;12.50;99.90
16643;DHT22;8435;52.184;5.406;2022-11-25T11:24:28;12.60;99.90
16643;DHT22;8435;52.184;5.406;2022-11-25T11:27:06;12.60;99.90
16643;DHT22;8435;52.184;5.406;2022-11-25T11:29:33;12.70;99.90
16643;DHT22;8435;52.184;5.406;2022-11-25T11:32:02;12.70;99.90
16643;DHT22;8435;52.184;5.406;2022-11-25T11:34:39;12.70;99.90
16643;DHT22;8435;52.184;5.406;2022-11-25T11:37:19;12.80;99.90
16643;DHT22;8435;52.184;5.406;2022-11-25T11:40:09;12.80;99.90
16643;DHT22;8435;52.184;5.406;2022-11-25T11:42:42;12.80;99.90
16643;DHT22;8435;52.184;5.406;2022-11-25T11:45:28;12.80;99.90
16643;DHT22;8435;52.184;5.406;2022-11-25T11:48:10;12.80;99.90
16643;DHT22;8435;52.184;5.406;2022-11-25T11:50:39;12.90;99.90
16643;DHT22;8435;52.184;5.406;2022-11-25T11:53:13;12.90;99.90
16643;DHT22;8435;52.184;5.406;2022-11-25T11:55:55;13.00;99.90
16643;DHT22;8435;52.184;5.406;2022-11-25T11:58:33;13.00;99.90
16643;DHT22;8435;52.184;5.406;2022-11-25T12:01:11;13.10;99.90
16643;DHT22;8435;52.184;5.406;2022-11-25T12:03:54;13.20;99.90
16643;DHT22;8435;52.184;5.406;2022-11-25T12:06:23;13.20;99.90
16643;DHT22;8435;52.184;5.406;2022-11-25T12:08:54;13.20;99.90
16643;DHT22;8435;52.184;5.406;2022-11-25T12:11:29;13.20;99.90
16643;DHT22;8435;52.184;5.406;2022-11-25T12:14:02;13.30;99.90
16643;DHT22;8435;52.184;5.406;2022-11-25T12:16:34;13.30;99.90
16643;DHT22;8435;52.184;5.406;2022-11-25T12:19:07;13.30;99.90
16643;DHT22;8435;52.184;5.406;2022-11-25T12:21:42;13.30;99.90
16643;DHT22;8435;52.184;5.406;2022-11-25T12:24:17;13.30;99.90
16643;DHT22;8435;52.184;5.406;2022-11-25T12:26:51;13.30;99.90
16643;DHT22;8435;52.184;5.406;2022-11-25T12:29:25;13.30;99.90
16643;DHT22;8435;52.184;5.406;2022-11-25T12:32:19;13.40;99.90
16643;DHT22;8435;52.184;5.406;2022-11-25T12:34:50;13.40;99.90
16643;DHT22;8435;52.184;5.406;2022-11-25T12:37:27;13.40;99.90
16643;DHT22;8435;52.184;5.406;2022-11-25T12:40:00;13.40;99.90
16643;DHT22;8435;52.184;5.406;2022-11-25T12:42:31;13.40;99.90
16643;DHT22;8435;52.184;5.406;2022-11-25T12:45:02;13.40;99.90
16643;DHT22;8435;52.184;5.406;2022-11-25T12:47:30;13.50;99.90
16643;DHT22;8435;52.184;5.406;2022-11-25T12:49:57;13.50;99.90
16643;DHT22;8435;52.184;5.406;2022-11-25T12:52:41;13.50;99.90
16643;DHT22;8435;52.184;5.406;2022-11-25T12:55:12;13.50;99.90
16643;DHT22;8435;52.184;5.406;2022-11-25T13:01:20;13.60;99.90
16643;DHT22;8435;52.184;5.406;2022-11-25T13:07:17;13.60;99.90
16643;DHT22;8435;52.184;5.406;2022-11-25T13:10:24;13.60;99.90
16643;DHT22;8435;52.184;5.406;2022-11-25T13:16:09;13.60;99.90
16643;DHT22;8435;52.184;5.406;2022-11-25T13:18:40;13.50;99.90
16643;DHT22;8435;52.184;5.406;2022-11-25T13:21:13;13.50;99.90
16643;DHT22;8435;52.184;5.406;2022-11-25T13:23:47;13.50;99.90
16643;DHT22;8435;52.184;5.406;2022-11-25T13:26:48;13.50;99.90
16643;DHT22;8435;52.184;5.406;2022-11-25T13:32:38;13.50;99.90
16643;DHT22;8435;52.184;5.406;2022-11-25T13:35:49;13.60;99.90
16643;DHT22;8435;52.184;5.406;2022-11-25T13:38:36;13.20;99.90
16643;DHT22;8435;52.184;5.406;2022-11-25T13:41:22;13.70;99.90
16643;DHT22;8435;52.184;5.406;2022-11-25T13:43:56;13.70;99.90
16643;DHT22;8435;52.184;5.406;2022-11-25T13:46:36;13.70;99.90
16643;DHT22;8435;52.184;5.406;2022-11-25T13:49:06;13.70;99.90
16643;DHT22;8435;52.184;5.406;2022-11-25T13:51:48;13.70;99.90
16643;DHT22;8435;52.184;5.406;2022-11-25T13:54:17;13.70;99.90
16643;DHT22;8435;52.184;5.406;2022-11-25T13:56:58;13.70;99.90
16643;DHT22;8435;52.184;5.406;2022-11-25T13:59:34;13.80;99.90
16643;DHT22;8435;52.184;5.406;2022-11-25T14:05:38;13.80;99.90
16643;DHT22;8435;52.184;5.406;2022-11-25T14:08:19;13.80;99.90
16643;DHT22;8435;52.184;5.406;2022-11-25T14:10:52;13.80;99.90
16643;DHT22;8435;52.184;5.406;2022-11-25T14:13:35;13.80;99.90
16643;DHT22;8435;52.184;5.406;2022-11-25T14:16:15;13.80;99.90
16643;DHT22;8435;52.184;5.406;2022-11-25T14:18:56;13.80;99.90
16643;DHT22;8435;52.184;5.406;2022-11-25T14:21:55;13.80;99.90
16643;DHT22;8435;52.184;5.406;2022-11-25T14:24:33;13.70;99.90
16643;DHT22;8435;52.184;5.406;2022-11-25T14:27:02;13.70;99.90
16643;DHT22;8435;52.184;5.406;2022-11-25T14:29:36;13.70;99.90
16643;DHT22;8435;52.184;5.406;2022-11-25T14:32:09;13.70;99.90
16643;DHT22;8435;52.184;5.406;2022-11-25T14:34:41;13.70;99.90
16643;DHT22;8435;52.184;5.406;2022-11-25T14:37:13;13.70;99.90
16643;DHT22;8435;52.184;5.406;2022-11-25T14:39:47;13.70;99.90
16643;DHT22;8435;52.184;5.406;2022-11-25T14:42:17;13.60;99.90
16643;DHT22;8435;52.184;5.406;2022-11-25T14:44:46;13.60;99.90
16643;DHT22;8435;52.184;5.406;2022-11-25T14:47:20;13.50;99.90
16643;DHT22;8435;52.184;5.406;2022-11-25T14:49:48;13.50;99.90
16643;DHT22;8435;52.184;5.406;2022-11-25T14:52:21;13.40;99.90
16643;DHT22;8435;52.184;5.406;2022-11-25T14:54:54;13.40;99.90
16643;DHT22;8435;52.184;5.406;2022-11-25T14:57:23;13.40;99.90
16643;DHT22;8435;52.184;5.406;2022-11-25T14:59:51;13.40;99.90
16643;DHT22;8435;52.184;5.406;2022-11-25T15:02:24;13.40;99.90
16643;DHT22;8435;52.184;5.406;2022-11-25T15:04:52;13.40;99.90
16643;DHT22;8435;52.184;5.406;2022-11-25T15:07:21;13.30;99.90
16643;DHT22;8435;52.184;5.406;2022-11-25T15:09:49;13.30;99.90
16643;DHT22;8435;52.184;5.406;2022-11-25T15:12:17;13.30;99.90
16643;DHT22;8435;52.184;5.406;2022-11-25T15:14:48;13.20;99.90
16643;DHT22;8435;52.184;5.406;2022-11-25T15:17:23;13.20;99.90
16643;DHT22;8435;52.184;5.406;2022-11-25T15:19:51;13.20;99.90
16643;DHT22;8435;52.184;5.406;2022-11-25T15:22:20;13.10;99.90
16643;DHT22;8435;52.184;5.406;2022-11-25T15:24:48;13.10;99.90
16643;DHT22;8435;52.184;5.406;2022-11-25T15:27:18;13.00;99.90
16643;DHT22;8435;52.184;5.406;2022-11-25T15:29:47;13.00;99.90
16643;DHT22;8435;52.184;5.406;2022-11-25T15:32:17;12.90;99.90
16643;DHT22;8435;52.184;5.406;2022-11-25T15:34:45;12.80;99.90
16643;DHT22;8435;52.184;5.406;2022-11-25T15:37:12;12.80;99.90
16643;DHT22;8435;52.184;5.406;2022-11-25T15:39:43;12.70;99.90
16643;DHT22;8435;52.184;5.406;2022-11-25T15:42:15;12.70;99.90
16643;DHT22;8435;52.184;5.406;2022-11-25T15:44:47;12.60;99.90
16643;DHT22;8435;52.184;5.406;2022-11-25T15:47:18;12.60;99.90
16643;DHT22;8435;52.184;5.406;2022-11-25T15:49:49;12.50;99.90
16643;DHT22;8435;52.184;5.406;2022-11-25T15:52:19;12.50;99.90
16643;DHT22;8435;52.184;5.406;2022-11-25T15:54:50;12.50;99.90
16643;DHT22;8435;52.184;5.406;2022-11-25T15:57:19;12.50;99.90
16643;DHT22;8435;52.184;5.406;2022-11-25T15:59:49;12.40;99.90
16643;DHT22;8435;52.184;5.406;2022-11-25T16:02:29;12.40;99.90
16643;DHT22;8435;52.184;5.406;2022-11-25T16:05:15;12.30;99.90
16643;DHT22;8435;52.184;5.406;2022-11-25T16:10:53;12.20;99.90
16643;DHT22;8435;52.184;5.406;2022-11-25T16:13:34;12.20;99.90
16643;DHT22;8435;52.184;5.406;2022-11-25T16:16:18;12.10;99.90
16643;DHT22;8435;52.184;5.406;2022-11-25T16:19:04;12.10;99.90
16643;DHT22;8435;52.184;5.406;2022-11-25T16:21:41;12.10;99.90
16643;DHT22;8435;52.184;5.406;2022-11-25T16:24:18;12.00;99.90
16643;DHT22;8435;52.184;5.406;2022-11-25T16:26:51;12.00;99.90